EmailTwitter


Surface observations / United Kingdom / EGTE (03839)

Regions: Quebec | Canada | USA | Europe | France | UK | Elsewhere
Station
Display
Info & Location for EGTE (03839) | Help decoding METAR

Weather Conditions observed on 2021/03/04 at 02:20 UTC at EXETER AIRPORT, UK (EGTE)

Sky conditions: partly cloudy.

Obstruction(s) to Vision: fog.

Temperature: 7.0 Celsius.

Dewpoint: 7.0 Celsius.

Relative Humidity: 100%

Winds: West-northwest at 9 km/h or 5 knots.

Mean Sea level Pressure: 102.40 kilopascals.

Horizontal visibility: 2.49 statute miles or 3.98 kilometers.

Height of the Ceiling: 853 metres ( 2800 feet ).

Coded METAR:

EGTE 040220Z 29005KT 4000 BR SCT009 BKN028 07/07 Q1024=